Wrangell, AK

11:26 AM PDT on March 28, 2015 (GMT -0700)
HADS STIKINE R NR WRANGELL AK USGS | | Change Station
CLOSE
Current Station
Personal Weather Station
Location: Iskut River, BC
Elevation: 316 ft
Nearby Weather Stations

Elev 316 ft 56.71 °N, 132.13 °W | Updated 4 days ago

Cloudy
Cloudy
46 °F
Feels Like 45 °F
N
4
Wind Variable Wind from ENE
Gusts mph

Today
High -- | Low -- °F
--% Chance of Precip.
Yesterday
High -- | Low -- °F
Precip. -- in
7:29 AM 8:19 PM
Waxing Gibbous, 64% visible
Pressure 29.77 in
Visibility 10.0 miles
Clouds Few 4500 ft
Mostly Cloudy 7500 ft
Mostly Cloudy 10000 ft
Windchill 45 °F
Dew Point 37 °F
Humidity 68%
Rainfall in
Snow Depth Not available.
UV 1 out of 12
Pollen Not available.
Air Quality Not available.
Flu Activity Not available.
METAR PAWG 281816Z 09008KT 10SM FEW045 BKN075 BKN100 07/03 A2977 RMK AO1 WEA: -SHRA (KB

More Conditions Fewer Conditions

Pressure 29.77 in
Visibility 10.0 miles
Clouds Few 4500 ft
Mostly Cloudy 7500 ft
Mostly Cloudy 10000 ft
Windchill 45 °F
Dew Point 37 °F
Humidity 68%
Rainfall in
Snow Depth Not available.
UV 1 out of 12
Pollen Not available.
Air Quality Not available.
Flu Activity Not available.
METAR PAWG 281816Z 09008KT 10SM FEW045 BKN075 BKN100 07/03 A2977 RMK AO1 WEA: -SHRA (KB

More Conditions Fewer Conditions

10-Day Weather Forecast

Almanac

Astronomy

Mar. 28, 2015 Rise Set
Actual Time
Civil Twilight
Nautical Twilight
Astronomical Twilight
Moon
Length of Visible Light
Length of Day
Tomorrow will be .
, % of the Moon is Illuminated

Today's Extremes

State Highs State Lows

Community

WunderPhotos

Upload Photos

1,809,055 photos uploaded!

WunderBlogs® & News

Nearby

Air Quality

  Air Quality AQ Index Pollutant
Not available.

Snow Depth

Station Depth Elevation

Earthquake Activity

City Distance Mag. Time & Date
Minimum magnitude displayed is 2.5.

Coastal Water Temperatures

Place Temperature

Stations

Nearby Weather Stations

Station Location Temp. Windchill Dew Point Humidity Wind Precip. Elev Updated Type